EVRAEYVI

Guest
Details From EVRA - Riga Intl
To EYVI - VILNIUS INTL
Flight Number -
Tags generated
Created
Modified
Stats Distance 147 nm / 272 km
Max Altitude 13,200 ft / 4,023 m
Waypoints 5
Social Downloads 1
Likes 0
Share VATSIM

Download

Looking for another format? Having issues loading an existing format? Contact us
Advertisement - Login to hide

Notes

Basic altitude profile: - Ascent Rate: 2500ft/min - Ascent Speed: 250kts - Cruise Altitude: 35000ft - Cruise Speed: 420kts - Descent Rate: 1500ft/min - Descent Speed: 250kts Options: - Use NATs: yes - Use PACOTS: yes - Use low airways: yes - Use high airways: no

Route

EVRA RIA N623 ERIVA N994 VNO EYVI

ID Type Via Altitude Latitude Longitude Leg Dist Tot Dist Heading (true) Name
O EVRA APT - 0 ft / 0 m 56.92366˚ 23.97119˚ - 0 nm - Riga Intl
RIA VOR - 0 ft / 0 m 56.92086˚ 23.96519˚ 0 nm 0 nm 229° / 229° RIGA VOR-DME
ERIVA FIX N623 (AWY-LO) 13,200 ft / 4,023 m 56.36889˚ 24.63028˚ 39 nm 40 nm 146° / 147° -
VNO VOR N994 (AWY-LO) 9,500 ft / 2,896 m 54.63606˚ 25.29363˚ 106 nm 146 nm 167° / 168° VILNIUS VOR-DME
O EYVI APT - 0 ft / 0 m 54.63417˚ 25.28580˚ 0 nm 146 nm 247° / 247° VILNIUS INTL

Altitude Profile

Advertisement - Login to hide

EVRA

Details ICAO EVRA (RIX)
Name Riga Intl
Region Latvia
Timezone Europe/Riga (UTC+3.0)
Stats Elevation 34 ft / 10 m (AMSL)
Location 56.923662° 23.971193°
Runways 1
Magnetic Variation 7.719° E

METAR

EVRA 250120Z 05005KT CAVOK 14/09 Q1026 NOSIG

Decode

TAF

TAF EVRA 242001Z 2421/2521 08005KT CAVOK TEMPO 2421/2503 0500 FG BKN002 BECMG 2509/2511 01010KT BECMG 2518/2520 VRB02KT

Decode

Departure Runways

ID Width Length Bearing (true) Bearing (mag) Surface Threshold Offset Overrun Length
18 148 ft / 45 m 8,358 ft / 2,548 m 185.15° 177.43° Asphalt 0 ft / 0 m 170 ft / 52 m
36 148 ft / 45 m 8,358 ft / 2,548 m 5.14° 357.42° Asphalt 0 ft / 0 m 170 ft / 52 m

EYVI

Details ICAO EYVI (VNO)
Name VILNIUS INTL
Region Lithuania
Timezone Europe/Vilnius (UTC+3.0)
Stats Elevation 646 ft / 197 m (AMSL)
Location 54.634166° 25.285796°
Runways 1
Magnetic Variation 7.530° E

METAR

EYVI 250120Z 03005KT CAVOK 12/11 Q1023 NOSIG

Decode

TAF

Not found

Destination Runways

ID Width Length Bearing (true) Bearing (mag) Surface Threshold Offset Overrun Length
02 164 ft / 50 m 8,210 ft / 2,502 m 21.89° 14.36° Asphalt 0 ft / 0 m 151 ft / 46 m
20 164 ft / 50 m 8,210 ft / 2,502 m 201.91° 194.38° Asphalt 0 ft / 0 m 0 ft / 0 m

Approach Navaids

Runway Type Ident Frequency Range Bearing (true) Bearing (mag) Slope Elevation
02 Localiser IAV 110.50 MHz 18 nm / 33 km 21.88° 14.35° - 646 ft / 197 m (AMSL)
02 Glidescope IAV 110.50 MHz 10 nm / 19 km 21.90° 14.37° 2.67° 646 ft / 197 m (AMSL)
20 Localiser IBK 109.10 MHz 18 nm / 33 km 201.87° 194.34° - 646 ft / 197 m (AMSL)
20 Glidescope IBK 109.10 MHz 10 nm / 19 km 201.90° 194.37° 3.00° 646 ft / 197 m (AMSL)
20 DME IBK 109.10 MHz 18 nm / 33 km - - - 651 ft / 198 m (AMSL)

Popular Alternatives